Time;durP1;ratioP1;P1;durP2;ratioP2;P2;SDS_P1;SDS_P2;PMS_P1;PMS_P2;Temp;Humidity;BMP_temperature;BMP_pressure;BME280_temperature;BME280_humidity;BME280_pressure;Samples;Min_cycle;Max_cycle;Signal;HPM_P1;HPM_P2
2022/06/03 00:01:00;;;;;;;;;;;;;;;15.46;67.41;96947.91;30001;983;1876;-67
2022/06/03 00:01:42;;;;;;;;;;;;;;;15.46;67.85;96950.66;30001;983;1877;-68
2022/06/03 00:02:31;;;;;;;;;;;;;;;15.47;68.01;96957.72;30001;983;1868;-65
2022/06/03 00:03:21;;;;;;;;;;;;;;;15.45;68.21;96949.03;30001;983;1864;-68
2022/06/03 00:04:12;;;;;;;;;;;;;;;15.43;68.06;96955.62;30001;983;1877;-65
2022/06/03 00:05:04;;;;;;;;;;;;;;;15.43;68.08;96952.09;30001;982;1868;-66
2022/06/03 00:05:47;;;;;;;;;;;;;;;15.43;68.28;96955.62;30001;982;1873;-65
2022/06/03 00:06:46;;;;;;;;;;;;;;;15.42;68.41;96954.03;30001;982;1882;-67
2022/06/03 00:07:35;;;;;;;;;;;;;;;15.42;68.57;96956.75;30001;983;1876;-65
2022/06/03 00:08:32;;;;;;;;;;;;;;;15.42;68.27;96955.94;30001;983;1859;-68
2022/06/03 00:09:21;;;;;;;;;;;;;;;15.39;68.48;96951.94;30001;983;1872;-68
2022/06/03 00:10:21;;;;;;;;;;;;;;;15.38;68.55;96953.06;30001;983;1872;-68
2022/06/03 00:11:19;;;;;;;;;;;;;;;15.36;68.66;96949.84;30001;983;1877;-66
2022/06/03 00:12:04;;;;;;;;;;;;;;;15.35;68.77;96955.62;30001;982;1868;-65
2022/06/03 00:13:13;;;;;;;;;;;;;;;15.33;68.79;96958.69;30001;982;1873;-68
2022/06/03 00:14:05;;;;;;;;;;;;;;;15.32;68.67;96954.34;30001;982;1877;-68
2022/06/03 00:15:00;;;;;;;;;;;;;;;15.32;68.61;96953.53;30001;983;1881;-67
2022/06/03 00:15:41;;;;;;;;;;;;;;;15.32;69.10;96954.34;30001;983;1867;-67
2022/06/03 00:16:30;;;;;;;;;;;;;;;15.31;69.09;96951.94;30001;983;1872;-67
2022/06/03 00:17:04;;;;;;;;;;;;;;;15.30;68.96;96950.31;30001;983;1872;-66
2022/06/03 00:17:55;;;;;;;;;;;;;;;15.29;68.78;96952.25;30001;983;1868;-68
2022/06/03 00:18:57;;;;;;;;;;;;;;;15.28;69.21;96953.38;30001;983;1868;-68
2022/06/03 00:19:43;;;;;;;;;;;;;;;15.25;68.79;96954.00;30001;982;1877;-66
2022/06/03 00:20:44;;;;;;;;;;;;;;;15.24;69.11;96955.16;30001;982;1881;-68
2022/06/03 00:21:38;;;;;;;;;;;;;;;15.24;68.94;96946.16;30001;982;1864;-68
2022/06/03 00:22:29;;;;;;;;;;;;;;;15.22;69.27;96941.00;30001;983;1872;-66
2022/06/03 00:23:14;;;;;;;;;;;;;;;15.23;69.08;96942.63;30001;983;1863;-68
2022/06/03 00:24:05;;;;;;;;;;;;;;;15.22;69.08;96949.22;30001;983;1872;-66
2022/06/03 00:24:58;;;;;;;;;;;;;;;15.20;69.01;96951.47;30001;983;1876;-68
2022/06/03 00:25:47;;;;;;;;;;;;;;;15.19;69.25;96944.37;30001;983;1877;-66
2022/06/03 00:26:53;;;;;;;;;;;;;;;15.18;69.22;96940.03;30001;982;1859;-52
2022/06/03 00:27:44;;;;;;;;;;;;;;;15.17;68.93;96946.63;30001;982;1868;-68
2022/06/03 00:28:35;;;;;;;;;;;;;;;15.14;68.83;96947.28;30001;982;1882;-66
2022/06/03 00:29:24;;;;;;;;;;;;;;;15.13;69.14;96940.19;30001;983;1876;-67
2022/06/03 00:30:01;;;;;;;;;;;;;;;15.13;69.24;96944.84;30001;983;1872;-66
2022/06/03 00:30:43;;;;;;;;;;;;;;;15.13;69.81;96940.19;30001;983;1881;-65
2022/06/03 00:31:23;;;;;;;;;;;;;;;15.14;69.81;96941.81;30001;983;1868;-67
2022/06/03 00:32:23;;;;;;;;;;;;;;;15.13;69.74;96936.66;30001;983;1872;-68
2022/06/03 00:33:06;;;;;;;;;;;;;;;15.11;69.80;96942.44;30001;983;1877;-68
2022/06/03 00:33:55;;;;;;;;;;;;;;;15.10;69.71;96940.84;30001;982;1881;-68
2022/06/03 00:34:56;;;;;;;;;;;;;;;15.07;69.44;96936.81;30001;982;1873;-68
2022/06/03 00:35:48;;;;;;;;;;;;;;;15.06;69.68;96939.88;30001;982;1868;-68
2022/06/03 00:36:48;;;;;;;;;;;;;;;15.05;69.89;96938.25;30001;982;1873;-68
2022/06/03 00:37:39;;;;;;;;;;;;;;;15.04;69.58;96932.00;30001;983;1881;-67
2022/06/03 00:38:25;;;;;;;;;;;;;;;15.03;69.91;96935.84;30001;983;1859;-68
2022/06/03 00:39:16;;;;;;;;;;;;;;;15.03;69.80;96935.03;30001;983;1868;-65
2022/06/03 00:39:57;;;;;;;;;;;;;;;15.01;70.12;96937.28;30001;983;1877;-65
2022/06/03 00:40:43;;;;;;;;;;;;;;;15.01;70.13;96940.03;30001;983;1864;-66
2022/06/03 00:41:34;;;;;;;;;;;;;;;15.00;70.07;96932.94;30001;982;1868;-67
2022/06/03 00:42:27;;;;;;;;;;;;;;;15.01;70.32;96942.75;30001;982;1872;-65
2022/06/03 00:43:24;;;;;;;;;;;;;;;15.00;70.44;96938.41;30001;982;1877;-51
2022/06/03 00:44:27;;;;;;;;;;;;;;;14.98;70.45;96938.72;30001;983;1872;-66
2022/06/03 00:45:22;;;;;;;;;;;;;;;14.97;70.61;96937.13;30001;983;1872;-65
2022/06/03 00:45:59;;;;;;;;;;;;;;;14.96;70.58;96935.50;30001;983;1864;-67
2022/06/03 00:47:05;;;;;;;;;;;;;;;14.95;70.28;96933.09;30001;983;1868;-67
2022/06/03 00:47:58;;;;;;;;;;;;;;;14.93;70.31;96933.41;30001;983;1872;-68
2022/06/03 00:48:55;;;;;;;;;;;;;;;14.92;70.18;96931.00;30001;982;1859;-68
2022/06/03 00:49:45;;;;;;;;;;;;;;;14.91;70.20;96932.13;30001;982;1864;-66
2022/06/03 00:50:45;;;;;;;;;;;;;;;14.88;70.50;96933.59;30001;982;1873;-66
2022/06/03 00:51:36;;;;;;;;;;;;;;;14.89;70.28;96934.41;30001;962;1789;-68
2022/06/03 00:52:26;;;;;;;;;;;;;;;14.89;70.46;96937.13;30001;983;1872;-68
2022/06/03 00:53:16;;;;;;;;;;;;;;;14.88;70.55;96932.78;30001;983;1859;-67
2022/06/03 00:54:19;;;;;;;;;;;;;;;14.87;70.33;96931.97;30001;983;1868;-68
2022/06/03 00:55:08;;;;;;;;;;;;;;;14.88;70.31;96935.53;30001;983;1872;-65
2022/06/03 00:56:03;;;;;;;;;;;;;;;14.86;70.55;96932.31;30001;983;1868;-69
2022/06/03 00:56:54;;;;;;;;;;;;;;;14.86;70.58;96940.50;30001;982;1859;-66
2022/06/03 00:57:45;;;;;;;;;;;;;;;14.85;70.87;96938.88;30001;982;1868;-68
2022/06/03 00:58:41;;;;;;;;;;;;;;;14.86;70.46;96940.50;30001;982;1877;-67
2022/06/03 00:59:27;;;;;;;;;;;;;;;14.83;70.57;96932.94;30001;983;1872;-69
2022/06/03 01:00:26;;;;;;;;;;;;;;;14.84;70.56;96937.28;30001;983;1877;-67
2022/06/03 01:01:09;;;;;;;;;;;;;;;14.83;70.67;96939.19;30001;983;1872;-65
2022/06/03 01:02:04;;;;;;;;;;;;;;;14.82;70.85;96934.06;30001;983;1864;-52
2022/06/03 01:03:10;;;;;;;;;;;;;;;14.79;70.70;96930.03;30001;983;1868;-64
2022/06/03 01:04:03;;;;;;;;;;;;;;;14.77;70.90;96931.47;30001;982;1859;-65
2022/06/03 01:04:39;;;;;;;;;;;;;;;14.76;70.92;96930.66;30001;982;1868;-51
2022/06/03 01:05:24;;;;;;;;;;;;;;;14.77;71.16;96935.00;30001;982;1864;-52
2022/06/03 01:06:22;;;;;;;;;;;;;;;14.77;71.23;96932.28;30001;982;1869;-67
2022/06/03 01:07:10;;;;;;;;;;;;;;;14.74;70.76;96930.19;30001;983;1876;-51
2022/06/03 01:07:51;;;;;;;;;;;;;;;14.73;71.00;96943.03;30001;983;1877;-64
2022/06/03 01:08:57;;;;;;;;;;;;;;;14.72;70.90;96929.69;30001;983;1876;-52
2022/06/03 01:09:46;;;;;;;;;;;;;;;14.70;71.00;96932.75;30001;983;1859;-52
2022/06/03 01:10:40;;;;;;;;;;;;;;;14.68;71.20;96934.97;30001;983;1859;-51
2022/06/03 01:11:23;;;;;;;;;;;;;;;14.64;72.93;96934.00;30001;982;1872;-53
2022/06/03 01:12:12;;;;;;;;;;;;;;;14.60;73.47;96932.22;30001;982;1864;-53
2022/06/03 01:13:02;;;;;;;;;;;;;;;14.56;72.96;96936.72;30001;982;1860;-66
2022/06/03 01:13:53;;;;;;;;;;;;;;;14.54;72.24;96928.87;30001;983;1876;-67
2022/06/03 01:14:44;;;;;;;;;;;;;;;14.55;72.33;96930.47;30001;974;1890;-68
2022/06/03 01:15:37;;;;;;;;;;;;;;;14.55;72.50;96929.66;30001;983;1872;-53
2022/06/03 01:16:32;;;;;;;;;;;;;;;14.53;72.51;96926.44;30001;983;1864;-53
2022/06/03 01:17:13;;;;;;;;;;;;;;;14.52;71.94;96931.09;30001;983;1868;-66
2022/06/03 01:18:10;;;;;;;;;;;;;;;14.52;72.19;96931.09;30001;982;1877;-66
2022/06/03 01:19:01;;;;;;;;;;;;;;;14.53;72.24;96932.72;30001;982;1859;-68
2022/06/03 01:19:50;;;;;;;;;;;;;;;14.54;72.21;96928.87;30001;982;1868;-66
2022/06/03 01:20:44;;;;;;;;;;;;;;;14.54;72.12;96917.94;30001;982;1869;-64
2022/06/03 01:21:31;;;;;;;;;;;;;;;14.55;72.23;96930.47;30001;972;1893;-68
2022/06/03 01:22:40;;;;;;;;;;;;;;;14.56;71.96;96936.72;30001;983;1877;-53
2022/06/03 01:23:29;;;;;;;;;;;;;;;14.56;71.60;96937.50;30001;983;1859;-53
2022/06/03 01:24:22;;;;;;;;;;;;;;;14.55;71.96;96941.41;30001;983;1859;-53
2022/06/03 01:25:19;;;;;;;;;;;;;;;14.56;71.95;96939.44;30001;983;1872;-53
2022/06/03 01:26:19;;;;;;;;;;;;;;;14.56;71.66;96942.97;30001;982;1873;-54
2022/06/03 01:27:11;;;;;;;;;;;;;;;14.57;71.84;96944.59;30001;982;1873;-69
2022/06/03 01:28:04;;;;;;;;;;;;;;;14.59;71.59;96936.06;30001;982;1877;-66
2022/06/03 01:28:58;;;;;;;;;;;;;;;14.59;71.69;96942.34;30001;982;1864;-67
2022/06/03 01:29:58;;;;;;;;;;;;;;;14.60;71.53;96938.50;30001;983;1863;-67
2022/06/03 01:31:00;;;;;;;;;;;;;;;14.65;71.54;96935.63;30001;983;1872;-53
2022/06/03 01:31:50;;;;;;;;;;;;;;;14.70;71.66;96938.19;30001;983;1859;-64
2022/06/03 01:32:31;;;;;;;;;;;;;;;14.72;71.26;96941.44;30001;983;1859;-65
2022/06/03 01:33:14;;;;;;;;;;;;;;;14.73;71.00;96937.56;30001;982;1877;-54
2022/06/03 01:34:19;;;;;;;;;;;;;;;14.74;71.26;96928.25;30001;982;1877;-67
2022/06/03 01:35:06;;;;;;;;;;;;;;;14.80;70.90;96933.56;30001;982;1873;-68
2022/06/03 01:35:45;;;;;;;;;;;;;;;14.81;70.87;96930.53;30001;982;1877;-53
2022/06/03 01:36:34;;;;;;;;;;;;;;;14.84;70.57;96929.09;30001;983;1876;-54
2022/06/03 01:37:23;;;;;;;;;;;;;;;14.88;70.61;96927.31;30001;983;1855;-54
2022/06/03 01:38:12;;;;;;;;;;;;;;;14.89;70.35;96931.66;30001;983;1864;-53
2022/06/03 01:38:52;;;;;;;;;;;;;;;14.90;70.27;96936.78;30001;983;1855;-68
2022/06/03 01:39:41;;;;;;;;;;;;;;;14.92;70.36;96928.25;30001;983;1868;-68
2022/06/03 01:40:23;;;;;;;;;;;;;;;14.94;70.28;96934.22;30001;983;1868;-67
2022/06/03 01:41:10;;;;;;;;;;;;;;;14.94;70.20;96934.22;30001;982;1877;-68
2022/06/03 01:41:50;;;;;;;;;;;;;;;14.95;70.28;96933.91;30001;982;1877;-54
2022/06/03 01:42:39;;;;;;;;;;;;;;;14.98;70.10;96937.91;30001;982;1877;-67
2022/06/03 01:43:33;;;;;;;;;;;;;;;15.01;70.28;96932.62;30001;982;1860;-55
2022/06/03 01:44:17;;;;;;;;;;;;;;;15.01;70.07;96927.16;30001;983;1854;-66
2022/06/03 01:45:06;;;;;;;;;;;;;;;15.03;69.88;96933.12;30001;983;1881;-55
2022/06/03 01:45:59;;;;;;;;;;;;;;;15.02;70.08;96928.78;30001;983;1872;-52
2022/06/03 01:46:32;;;;;;;;;;;;;;;15.00;69.94;96930.22;30001;983;1877;-52
2022/06/03 01:47:41;;;;;;;;;;;;;;;15.00;70.11;96930.22;30001;983;1881;-68
2022/06/03 01:48:30;;;;;;;;;;;;;;;14.98;70.20;96935.19;30001;982;1877;-53
2022/06/03 01:49:14;;;;;;;;;;;;;;;14.96;70.16;96931.97;30001;958;1884;-53
2022/06/03 01:50:04;;;;;;;;;;;;;;;14.95;70.22;96935.81;30001;982;1873;-53
2022/06/03 01:50:53;;;;;;;;;;;;;;;14.94;70.02;96934.22;30001;983;1872;-52
2022/06/03 01:51:42;;;;;;;;;;;;;;;14.94;70.26;96937.75;30001;983;1863;-66
2022/06/03 01:52:39;;;;;;;;;;;;;;;14.94;70.32;96937.75;30001;983;1863;-69
2022/06/03 01:53:23;;;;;;;;;;;;;;;14.92;70.58;96939.19;30001;983;1877;-67
2022/06/03 01:54:19;;;;;;;;;;;;;;;14.92;70.60;96933.72;30001;983;1868;-53
2022/06/03 01:55:08;;;;;;;;;;;;;;;14.89;70.24;96935.19;30001;983;1859;-67
2022/06/03 01:55:57;;;;;;;;;;;;;;;14.86;70.46;96932.31;30001;982;1873;-54
2022/06/03 01:56:44;;;;;;;;;;;;;;;14.83;70.60;96933.75;30001;982;1778;-66
2022/06/03 01:57:45;;;;;;;;;;;;;;;14.81;70.53;96937.91;30001;986;1868;-66
2022/06/03 01:58:43;;;;;;;;;;;;;;;14.79;70.75;96929.22;30001;983;1868;-67
2022/06/03 01:59:34;;;;;;;;;;;;;;;14.77;70.79;96939.66;30001;983;1881;-67
2022/06/03 02:00:21;;;;;;;;;;;;;;;14.73;71.01;96932.09;30001;983;1881;-65
2022/06/03 02:01:04;;;;;;;;;;;;;;;14.72;70.87;96938.69;30001;983;1881;-67
2022/06/03 02:01:56;;;;;;;;;;;;;;;14.70;70.68;96932.75;30001;983;1881;-66
2022/06/03 02:02:48;;;;;;;;;;;;;;;14.67;71.13;96938.84;30001;983;1859;-67
2022/06/03 02:03:52;;;;;;;;;;;;;;;14.65;71.37;96941.06;30001;982;1873;-53
2022/06/03 02:04:41;;;;;;;;;;;;;;;14.64;71.28;96934.00;30001;982;1877;-53
2022/06/03 02:05:24;;;;;;;;;;;;;;;14.64;71.48;96939.47;30001;982;1873;-53
2022/06/03 02:06:24;;;;;;;;;;;;;;;14.63;71.37;96932.41;30001;983;1881;-52
2022/06/03 02:07:13;;;;;;;;;;;;;;;14.63;71.34;96937.06;30001;983;1881;-66
2022/06/03 02:08:09;;;;;;;;;;;;;;;14.62;71.55;96936.25;30001;983;1859;-65
2022/06/03 02:08:48;;;;;;;;;;;;;;;14.60;71.72;96933.03;30001;983;1868;-53
2022/06/03 02:09:50;;;;;;;;;;;;;;;14.59;71.93;96936.87;30001;983;1881;-67
2022/06/03 02:10:54;;;;;;;;;;;;;;;14.54;72.33;96933.53;30001;983;1877;-65
2022/06/03 02:11:49;;;;;;;;;;;;;;;14.52;72.20;96941.22;30001;982;1881;-64
2022/06/03 02:12:39;;;;;;;;;;;;;;;14.50;72.27;96936.06;30001;982;1881;-67
2022/06/03 02:13:28;;;;;;;;;;;;;;;14.48;72.23;96932.84;30001;983;1867;-52
2022/06/03 02:14:19;;;;;;;;;;;;;;;14.47;72.38;96928.50;30001;983;1872;-65
2022/06/03 02:15:11;;;;;;;;;;;;;;;14.46;72.18;96934.28;30001;983;1876;-52
2022/06/03 02:16:05;;;;;;;;;;;;;;;14.44;72.41;96923.69;30001;983;1881;-52
2022/06/03 02:16:54;;;;;;;;;;;;;;;14.44;72.53;96928.34;30001;983;1877;-52
2022/06/03 02:17:32;;;;;;;;;;;;;;;14.42;72.76;96928.66;30001;983;1873;-67
2022/06/03 02:18:26;;;;;;;;;;;;;;;14.40;72.31;96933.59;30001;983;1881;-52
2022/06/03 02:19:28;;;;;;;;;;;;;;;14.39;72.80;96929.25;30001;982;1864;-52
2022/06/03 02:20:26;;;;;;;;;;;;;;;14.37;72.86;96928.75;30001;982;1868;-53
2022/06/03 02:21:26;;;;;;;;;;;;;;;14.35;72.62;96931.81;30001;983;1877;-53
2022/06/03 02:22:23;;;;;;;;;;;;;;;14.34;72.62;96926.66;30001;983;1876;-53
2022/06/03 02:23:06;;;;;;;;;;;;;;;14.33;73.37;96933.25;30001;983;1876;-68
2022/06/03 02:23:54;;;;;;;;;;;;;;;14.31;73.07;96930.03;30001;983;1881;-66
2022/06/03 02:24:36;;;;;;;;;;;;;;;14.28;73.52;96923.28;30001;983;1868;-68
2022/06/03 02:25:26;;;;;;;;;;;;;;;14.22;75.05;96927.25;30001;982;1872;-68
2022/06/03 02:26:16;;;;;;;;;;;;;;;14.10;76.11;96929.78;30001;982;1873;-53
2022/06/03 02:27:09;;;;;;;;;;;;;;;14.01;76.14;96929.75;30001;982;1881;-69
2022/06/03 02:28:00;;;;;;;;;;;;;;;13.98;76.43;96927.63;30001;982;1877;-67
2022/06/03 02:28:39;;;;;;;;;;;;;;;13.96;75.86;96924.41;30001;983;1876;-53
2022/06/03 02:30:54;;;;;;;;;;;;;;;14.01;74.95;96927.00;30001;983;1859;-52
2022/06/03 02:31:37;;;;;;;;;;;;;;;14.04;74.92;96925.59;30001;983;1855;-53
2022/06/03 02:32:36;;;;;;;;;;;;;;;14.07;74.58;96917.59;30001;983;1877;-67
2022/06/03 02:33:25;;;;;;;;;;;;;;;14.07;74.58;96925.75;30001;982;1877;-67
2022/06/03 02:34:09;;;;;;;;;;;;;;;14.08;74.63;96921.91;30001;982;1868;-67
2022/06/03 02:35:18;;;;;;;;;;;;;;;14.09;74.73;96923.53;30001;982;1877;-53
2022/06/03 02:36:27;;;;;;;;;;;;;;;14.09;74.71;96920.00;30001;983;1872;-67
2022/06/03 02:37:29;;;;;;;;;;;;;;;14.07;74.59;96917.59;30001;983;1859;-53
2022/06/03 02:38:09;;;;;;;;;;;;;;;14.07;74.58;96920.31;30001;983;1864;-53
2022/06/03 02:38:58;;;;;;;;;;;;;;;14.06;74.77;96918.69;30001;983;1877;-65
2022/06/03 02:40:00;;;;;;;;;;;;;;;14.06;74.41;96906.97;30001;983;1868;-52
2022/06/03 02:41:06;;;;;;;;;;;;;;;14.06;74.18;96915.16;30001;982;1877;-53
2022/06/03 02:41:58;;;;;;;;;;;;;;;14.05;74.34;96917.09;30001;982;1859;-53
2022/06/03 02:42:53;;;;;;;;;;;;;;;14.07;75.07;96909.41;30001;982;1868;-52
2022/06/03 02:43:35;;;;;;;;;;;;;;;14.06;76.06;96913.25;30001;983;1876;-53
2022/06/03 02:44:24;;;;;;;;;;;;;;;14.04;75.68;96914.69;30001;983;1876;-53
2022/06/03 02:45:20;;;;;;;;;;;;;;;14.03;75.54;96918.53;30001;973;1886;-53
2022/06/03 02:46:09;;;;;;;;;;;;;;;14.01;76.30;96916.09;30001;983;1872;-67
2022/06/03 02:47:00;;;;;;;;;;;;;;;14.00;76.23;96925.41;30001;983;1855;-52
2022/06/03 02:47:47;;;;;;;;;;;;;;;13.99;76.06;96918.34;30001;960;1886;-65
2022/06/03 02:48:56;;;;;;;;;;;;;;;13.98;76.21;96926.84;30001;982;1877;-67
2022/06/03 02:49:46;;;;;;;;;;;;;;;13.96;76.47;96924.41;30001;962;1792;-53
2022/06/03 02:50:35;;;;;;;;;;;;;;;13.94;75.89;96921.19;30001;982;1877;-53
2022/06/03 02:51:26;;;;;;;;;;;;;;;13.94;76.54;96926.66;30001;976;1885;-53
2022/06/03 02:52:16;;;;;;;;;;;;;;;13.93;76.26;96925.03;30001;983;1859;-53
2022/06/03 02:53:21;;;;;;;;;;;;;;;13.93;75.93;96930.50;30001;983;1859;-67
2022/06/03 02:54:14;;;;;;;;;;;;;;;13.96;75.57;96924.41;30001;983;1872;-65
2022/06/03 02:55:16;;;;;;;;;;;;;;;13.97;75.32;96928.75;30001;983;1877;-53
2022/06/03 02:56:13;;;;;;;;;;;;;;;14.00;75.19;96921.87;30001;982;1873;-52
2022/06/03 02:57:13;;;;;;;;;;;;;;;14.01;75.14;96926.22;30001;982;1873;-65
2022/06/03 02:58:03;;;;;;;;;;;;;;;14.01;75.01;96921.56;30001;983;1859;-66
2022/06/03 02:58:51;;;;;;;;;;;;;;;14.03;74.66;96924.78;30001;983;1863;-53
2022/06/03 02:59:40;;;;;;;;;;;;;;;14.06;74.92;96921.44;30001;983;1877;-54
2022/06/03 03:00:37;;;;;;;;;;;;;;;14.08;74.98;96916.47;30001;983;1868;-53
2022/06/03 03:01:31;;;;;;;;;;;;;;;14.09;74.59;96914.53;30001;983;1873;-67
2022/06/03 03:02:30;;;;;;;;;;;;;;;14.09;74.71;96918.06;30001;983;1873;-53
2022/06/03 03:03:21;;;;;;;;;;;;;;;14.10;74.64;96918.88;30001;982;1860;-68
2022/06/03 03:04:26;;;;;;;;;;;;;;;14.09;74.62;96920.00;30001;960;1886;-67
2022/06/03 03:05:03;;;;;;;;;;;;;;;14.11;74.62;96920.50;30001;982;1860;-65
2022/06/03 03:05:57;;;;;;;;;;;;;;;14.11;74.49;96925.94;30001;983;1868;-67
2022/06/03 03:06:55;;;;;;;;;;;;;;;14.13;74.60;96928.38;30001;983;1872;-52
2022/06/03 03:07:44;;;;;;;;;;;;;;;14.09;75.15;96926.25;30001;983;1872;-53
2022/06/03 03:08:47;;;;;;;;;;;;;;;14.08;75.40;96932.84;30001;983;1869;-52
2022/06/03 03:09:53;;;;;;;;;;;;;;;14.07;75.62;96935.88;30001;983;1873;-52
2022/06/03 03:10:44;;;;;;;;;;;;;;;14.03;76.05;96935.69;30001;982;1860;-65
2022/06/03 03:11:28;;;;;;;;;;;;;;;14.00;76.23;96936.31;30001;982;1864;-67
2022/06/03 03:12:19;;;;;;;;;;;;;;;13.99;76.23;96934.72;30001;982;1878;-68
2022/06/03 03:13:28;;;;;;;;;;;;;;;13.96;77.10;96935.34;30001;986;1859;-54
2022/06/03 03:14:21;;;;;;;;;;;;;;;13.94;75.88;96934.84;30001;983;1864;-52
2022/06/03 03:15:10;;;;;;;;;;;;;;;13.96;75.97;96929.87;30001;983;1859;-67
2022/06/03 03:16:04;;;;;;;;;;;;;;;13.96;75.81;96932.59;30001;983;1860;-68
2022/06/03 03:16:55;;;;;;;;;;;;;;;13.98;75.29;96932.28;30001;983;1860;-67
2022/06/03 03:17:42;;;;;;;;;;;;;;;14.00;75.46;96936.31;30001;983;1864;-67
2022/06/03 03:18:36;;;;;;;;;;;;;;;14.00;75.47;96925.41;30001;982;1877;-68
2022/06/03 03:19:36;;;;;;;;;;;;;;;14.02;75.30;96934.09;30001;963;1892;-66
2022/06/03 03:20:36;;;;;;;;;;;;;;;14.04;75.46;96931.84;30001;982;1864;-65
2022/06/03 03:21:45;;;;;;;;;;;;;;;14.04;76.00;96923.66;30001;983;1850;-52
2022/06/03 03:22:49;;;;;;;;;;;;;;;13.99;77.21;96928.44;30001;983;1872;-53
2022/06/03 03:23:50;;;;;;;;;;;;;;;13.95;76.83;96925.53;30001;981;1881;-67
2022/06/03 03:24:55;;;;;;;;;;;;;;;13.93;76.69;96919.59;30001;983;1877;-55
2022/06/03 03:25:37;;;;;;;;;;;;;;;13.92;77.10;96923.44;30001;982;1873;-53
2022/06/03 03:26:26;;;;;;;;;;;;;;;13.90;76.94;96920.22;30001;982;1864;-53
2022/06/03 03:27:25;;;;;;;;;;;;;;;13.90;76.67;96920.22;30001;982;1860;-67
2022/06/03 03:28:21;;;;;;;;;;;;;;;13.91;77.04;96921.81;30001;983;1877;-53
2022/06/03 03:29:08;;;;;;;;;;;;;;;13.91;76.51;96921.81;30001;983;1872;-53
2022/06/03 03:29:59;;;;;;;;;;;;;;;13.91;76.42;96924.56;30001;983;1877;-66
2022/06/03 03:30:36;;;;;;;;;;;;;;;13.91;76.03;96921.81;30001;987;1860;-67
2022/06/03 03:31:15;;;;;;;;;;;;;;;13.92;76.13;96923.44;30001;983;1868;-52
2022/06/03 03:31:55;;;;;;;;;;;;;;;13.93;75.75;96919.59;30001;983;1877;-66
2022/06/03 03:32:43;;;;;;;;;;;;;;;13.92;75.96;96917.97;30001;982;1877;-66
2022/06/03 03:33:34;;;;;;;;;;;;;;;13.94;75.66;96921.19;30001;982;1877;-68
2022/06/03 03:34:30;;;;;;;;;;;;;;;13.95;75.68;96917.34;30001;982;1873;-66
2022/06/03 03:35:22;;;;;;;;;;;;;;;13.97;75.88;96925.22;30001;982;1877;-52
2022/06/03 03:36:21;;;;;;;;;;;;;;;13.97;75.90;96917.84;30001;983;1863;-54
2022/06/03 03:37:30;;;;;;;;;;;;;;;13.98;75.52;96918.66;30001;983;1864;-53
2022/06/03 03:38:24;;;;;;;;;;;;;;;13.97;75.42;96920.56;30001;986;1872;-67
2022/06/03 03:39:08;;;;;;;;;;;;;;;13.98;75.35;96919.47;30001;983;1774;-53
2022/06/03 03:39:59;;;;;;;;;;;;;;;13.98;75.45;96916.72;30001;982;1877;-53
2022/06/03 03:40:52;;;;;;;;;;;;;;;13.99;75.33;96917.53;30002;778;1013;-54
2022/06/03 03:41:41;;;;;;;;;;;;;;;13.99;75.52;96918.34;30001;982;1860;-66
2022/06/03 03:42:26;;;;;;;;;;;;;;;13.98;75.34;96916.72;30001;982;1847;-53
2022/06/03 03:43:19;;;;;;;;;;;;;;;13.99;75.44;96923.00;30001;983;1877;-52
2022/06/03 03:44:05;;;;;;;;;;;;;;;14.00;75.64;96925.41;30001;983;1877;-53
2022/06/03 03:44:54;;;;;;;;;;;;;;;14.00;75.20;96928.13;30001;983;1864;-66
2022/06/03 03:45:51;;;;;;;;;;;;;;;13.99;75.38;96921.06;30001;983;1846;-65
2022/06/03 03:46:40;;;;;;;;;;;;;;;13.98;75.78;96924.91;30001;983;1873;-53
2022/06/03 03:47:29;;;;;;;;;;;;;;;13.96;75.93;96924.41;30001;982;1869;-67
2022/06/03 03:48:38;;;;;;;;;;;;;;;13.93;76.55;96927.78;30001;982;1860;-67
2022/06/03 03:49:28;;;;;;;;;;;;;;;13.83;77.96;96924.53;30001;982;1851;-53
2022/06/03 03:50:17;;;;;;;;;;;;;;;13.79;78.01;96923.53;30001;982;1873;-67
2022/06/03 03:51:04;;;;;;;;;;;;;;;13.76;77.20;96919.50;30001;983;1868;-66
2022/06/03 03:51:53;;;;;;;;;;;;;;;13.78;77.20;96925.47;30001;983;1863;-53
2022/06/03 03:52:59;;;;;;;;;;;;;;;13.76;77.22;96922.25;30001;983;1868;-67
2022/06/03 03:54:02;;;;;;;;;;;;;;;13.75;77.66;96921.44;30001;983;1873;-53
2022/06/03 03:54:55;;;;;;;;;;;;;;;13.71;78.27;96928.63;30001;963;1893;-65
2022/06/03 03:55:58;;;;;;;;;;;;;;;13.66;78.25;96919.75;30001;982;1873;-53
2022/06/03 03:56:49;;;;;;;;;;;;;;;13.66;77.78;96919.75;30001;982;1873;-53
2022/06/03 03:57:38;;;;;;;;;;;;;;;13.68;77.17;96915.63;30001;982;1865;-53
2022/06/03 03:58:27;;;;;;;;;;;;;;;13.72;76.94;96913.06;30001;983;1859;-53
2022/06/03 03:59:18;;;;;;;;;;;;;;;13.74;76.94;96916.28;30001;983;1873;-67
2022/06/03 04:00:27;;;;;;;;;;;;;;;13.77;76.78;96918.41;30001;983;1859;-68
2022/06/03 04:01:16;;;;;;;;;;;;;;;13.80;76.47;96912.31;30001;983;1863;-67
2022/06/03 04:02:05;;;;;;;;;;;;;;;13.81;76.27;96910.41;30001;983;1868;-53
2022/06/03 04:03:07;;;;;;;;;;;;;;;13.82;76.29;96907.34;30001;970;1782;-67
2022/06/03 04:04:04;;;;;;;;;;;;;;;13.83;76.28;96914.44;30001;982;1877;-53
2022/06/03 04:04:53;;;;;;;;;;;;;;;13.84;75.76;96910.59;30001;982;1860;-67
2022/06/03 04:05:42;;;;;;;;;;;;;;;13.84;76.17;96910.59;30001;983;1854;-53
2022/06/03 04:06:31;;;;;;;;;;;;;;;13.85;76.09;96912.19;30001;983;1868;-53
2022/06/03 04:07:22;;;;;;;;;;;;;;;13.86;75.69;96913.78;30001;983;1872;-52
2022/06/03 04:08:22;;;;;;;;;;;;;;;13.86;76.91;96915.72;30001;983;1872;-67
2022/06/03 04:09:07;;;;;;;;;;;;;;;13.85;76.11;96909.47;30001;983;1873;-65
2022/06/03 04:09:55;;;;;;;;;;;;;;;13.85;76.17;96917.66;30002;983;1877;-67
2022/06/03 04:10:52;;;;;;;;;;;;;;;13.86;76.27;96916.50;30002;982;1855;-68
2022/06/03 04:11:36;;;;;;;;;;;;;;;13.88;76.11;96917.00;30002;982;1864;-66
2022/06/03 04:12:42;;;;;;;;;;;;;;;13.90;76.06;96914.75;30002;982;1877;-53
2022/06/03 04:13:39;;;;;;;;;;;;;;;13.96;75.83;96920.88;30002;983;1872;-67
2022/06/03 04:14:33;;;;;;;;;;;;;;;13.99;75.56;96917.53;30002;983;1872;-54
2022/06/03 04:15:25;;;;;;;;;;;;;;;14.04;75.16;96920.94;30002;983;1859;-53
2022/06/03 04:16:31;;;;;;;;;;;;;;;14.08;74.90;96913.72;30002;983;1863;-68
2022/06/03 04:17:20;;;;;;;;;;;;;;;14.17;74.63;96910.25;30002;983;1873;-54
2022/06/03 04:18:17;;;;;;;;;;;;;;;14.24;74.09;96918.75;30002;982;1868;-53
2022/06/03 04:19:06;;;;;;;;;;;;;;;14.24;73.82;96916.84;30002;982;1873;-54
2022/06/03 04:19:47;;;;;;;;;;;;;;;14.28;73.67;96911.53;30002;982;1869;-54
2022/06/03 04:20:36;;;;;;;;;;;;;;;14.29;73.97;96911.22;30002;983;1863;-54
2022/06/03 04:21:26;;;;;;;;;;;;;;;14.30;73.80;96918.31;30002;983;1859;-66
2022/06/03 04:22:17;;;;;;;;;;;;;;;14.31;73.49;96911.72;30002;983;1872;-53
2022/06/03 04:23:04;;;;;;;;;;;;;;;14.32;73.67;96915.25;30002;983;1859;-54
2022/06/03 04:23:53;;;;;;;;;;;;;;;14.33;73.59;96911.41;30002;983;1868;-54
2022/06/03 04:24:42;;;;;;;;;;;;;;;14.31;73.31;96908.19;30002;983;1868;-53
2022/06/03 04:25:26;;;;;;;;;;;;;;;14.31;73.70;96908.19;30002;982;1873;-55
2022/06/03 04:26:20;;;;;;;;;;;;;;;14.33;73.44;96900.50;30002;982;1877;-54
2022/06/03 04:27:29;;;;;;;;;;;;;;;14.33;73.54;96905.94;30002;982;1873;-66
2022/06/03 04:28:38;;;;;;;;;;;;;;;14.33;73.19;96895.03;30002;983;1859;-52
2022/06/03 04:29:34;;;;;;;;;;;;;;;14.35;73.47;96899.06;30002;983;1863;-54
2022/06/03 04:30:23;;;;;;;;;;;;;;;14.34;73.28;96899.37;30002;983;1872;-53
2022/06/03 04:31:14;;;;;;;;;;;;;;;14.35;73.14;96896.31;30002;983;1868;-67
2022/06/03 04:32:17;;;;;;;;;;;;;;;14.35;73.33;96899.06;30002;983;1859;-68
2022/06/03 04:33:16;;;;;;;;;;;;;;;14.33;73.22;96892.31;30002;982;1864;-53
2022/06/03 04:34:07;;;;;;;;;;;;;;;14.33;73.26;96897.75;30002;982;1873;-56
2022/06/03 04:34:58;;;;;;;;;;;;;;;14.30;73.48;96901.94;30002;982;1873;-67
2022/06/03 04:35:46;;;;;;;;;;;;;;;14.29;73.32;96899.50;30002;983;1872;-53
2022/06/03 04:36:52;;;;;;;;;;;;;;;14.29;73.54;96899.50;30002;983;1868;-68
2022/06/03 04:37:49;;;;;;;;;;;;;;;14.27;74.43;96907.22;30002;983;1864;-68
2022/06/03 04:38:40;;;;;;;;;;;;;;;14.24;74.89;96907.84;30002;967;1879;-68
2022/06/03 04:39:29;;;;;;;;;;;;;;;14.22;74.90;96910.88;30002;982;1873;-67
2022/06/03 04:40:20;;;;;;;;;;;;;;;14.21;74.83;96903.00;30002;982;1868;-69
2022/06/03 04:41:09;;;;;;;;;;;;;;;14.22;74.46;96907.34;30002;982;1873;-67